sensor_id;sensor_type;location;lat;lon;timestamp;pressure;altitude;pressure_sealevel;temperature;humidity
74334;BME280;62753;40.394;-80.022;2023-07-30T00:00:49;97145.22;;;30.01;34.77
74334;BME280;62753;40.394;-80.022;2023-07-30T00:03:10;97136.99;;;30.40;34.70
74334;BME280;62753;40.394;-80.022;2023-07-30T00:05:36;97137.13;;;30.50;34.35
74334;BME280;62753;40.394;-80.022;2023-07-30T00:08:01;97142.84;;;31.63;32.74
74334;BME280;62753;40.394;-80.022;2023-07-30T00:10:26;97145.67;;;31.31;33.28
74334;BME280;62753;40.394;-80.022;2023-07-30T00:12:52;97152.92;;;30.96;33.91
74334;BME280;62753;40.394;-80.022;2023-07-30T00:15:16;97159.58;;;30.78;34.86
74334;BME280;62753;40.394;-80.022;2023-07-30T00:17:41;97157.91;;;31.02;34.26
74334;BME280;62753;40.394;-80.022;2023-07-30T00:20:08;97157.90;;;31.36;33.87
74334;BME280;62753;40.394;-80.022;2023-07-30T00:22:32;97164.52;;;30.27;35.21
74334;BME280;62753;40.394;-80.022;2023-07-30T00:24:57;97172.76;;;28.57;37.87
74334;BME280;62753;40.394;-80.022;2023-07-30T00:27:22;97166.29;;;29.44;36.36
74334;BME280;62753;40.394;-80.022;2023-07-30T00:29:47;97167.83;;;29.59;36.65
74334;BME280;62753;40.394;-80.022;2023-07-30T00:32:13;97176.83;;;28.87;37.62
74334;BME280;62753;40.394;-80.022;2023-07-30T00:34:37;97181.07;;;29.28;38.43
74334;BME280;62753;40.394;-80.022;2023-07-30T00:37:02;97186.14;;;28.48;39.45
74334;BME280;62753;40.394;-80.022;2023-07-30T00:39:28;97180.79;;;29.14;37.34
74334;BME280;62753;40.394;-80.022;2023-07-30T00:41:52;97183.26;;;28.01;39.37
74334;BME280;62753;40.394;-80.022;2023-07-30T00:44:18;97182.75;;;28.43;38.91
74334;BME280;62753;40.394;-80.022;2023-07-30T00:46:43;97177.63;;;29.38;37.74
74334;BME280;62753;40.394;-80.022;2023-07-30T00:49:08;97191.08;;;28.19;39.73
74334;BME280;62753;40.394;-80.022;2023-07-30T00:51:34;97201.09;;;28.83;38.84
74334;BME280;62753;40.394;-80.022;2023-07-30T00:53:59;97204.97;;;28.35;40.02
74334;BME280;62753;40.394;-80.022;2023-07-30T00:56:23;97213.68;;;27.40;41.39
74334;BME280;62753;40.394;-80.022;2023-07-30T00:58:49;97222.01;;;28.59;39.78
74334;BME280;62753;40.394;-80.022;2023-07-30T01:01:14;97217.42;;;29.47;37.90
74334;BME280;62753;40.394;-80.022;2023-07-30T01:03:39;97216.64;;;29.39;38.14
74334;BME280;62753;40.394;-80.022;2023-07-30T01:06:03;97222.99;;;28.61;38.47
74334;BME280;62753;40.394;-80.022;2023-07-30T01:08:29;97229.08;;;29.00;37.92
74334;BME280;62753;40.394;-80.022;2023-07-30T01:10:55;97229.91;;;28.36;39.39
74334;BME280;62753;40.394;-80.022;2023-07-30T01:13:19;97233.42;;;28.17;39.86
74334;BME280;62753;40.394;-80.022;2023-07-30T01:15:46;97247.74;;;28.43;39.47
74334;BME280;62753;40.394;-80.022;2023-07-30T01:18:10;97256.62;;;28.13;39.83
74334;BME280;62753;40.394;-80.022;2023-07-30T01:20:35;97262.97;;;28.49;39.61
74334;BME280;62753;40.394;-80.022;2023-07-30T01:23:00;97257.29;;;27.99;40.13
74334;BME280;62753;40.394;-80.022;2023-07-30T01:25:26;97263.02;;;28.09;40.42
74334;BME280;62753;40.394;-80.022;2023-07-30T01:27:55;97263.45;;;27.58;40.87
74334;BME280;62753;40.394;-80.022;2023-07-30T01:30:18;97273.97;;;28.50;39.49
74334;BME280;62753;40.394;-80.022;2023-07-30T01:32:41;97268.46;;;27.97;40.11
74334;BME280;62753;40.394;-80.022;2023-07-30T01:35:08;97269.56;;;28.90;38.28
74334;BME280;62753;40.394;-80.022;2023-07-30T01:37:31;97272.54;;;29.11;37.78
74334;BME280;62753;40.394;-80.022;2023-07-30T01:39:56;97272.44;;;28.91;37.48
74334;BME280;62753;40.394;-80.022;2023-07-30T01:42:21;97277.97;;;28.81;38.11
74334;BME280;62753;40.394;-80.022;2023-07-30T01:44:46;97276.79;;;29.16;37.50
74334;BME280;62753;40.394;-80.022;2023-07-30T01:47:12;97278.09;;;29.10;37.20
74334;BME280;62753;40.394;-80.022;2023-07-30T01:49:37;97286.47;;;28.65;37.05
74334;BME280;62753;40.394;-80.022;2023-07-30T01:52:02;97286.91;;;28.75;37.59
74334;BME280;62753;40.394;-80.022;2023-07-30T01:54:27;97290.22;;;29.34;36.20
74334;BME280;62753;40.394;-80.022;2023-07-30T01:56:52;97293.56;;;29.70;35.40
74334;BME280;62753;40.394;-80.022;2023-07-30T01:59:17;97301.61;;;29.65;35.42
74334;BME280;62753;40.394;-80.022;2023-07-30T02:01:43;97309.07;;;29.64;35.32
74334;BME280;62753;40.394;-80.022;2023-07-30T02:04:08;97313.06;;;28.78;36.15
74334;BME280;62753;40.394;-80.022;2023-07-30T02:06:33;97316.87;;;27.98;37.38
74334;BME280;62753;40.394;-80.022;2023-07-30T02:08:58;97317.20;;;28.59;36.59
74334;BME280;62753;40.394;-80.022;2023-07-30T02:11:23;97325.76;;;28.52;36.20
74334;BME280;62753;40.394;-80.022;2023-07-30T02:13:49;97327.45;;;28.57;36.17
74334;BME280;62753;40.394;-80.022;2023-07-30T02:16:14;97332.66;;;28.39;36.58
74334;BME280;62753;40.394;-80.022;2023-07-30T02:18:39;97331.42;;;27.19;37.70
74334;BME280;62753;40.394;-80.022;2023-07-30T02:21:04;97330.43;;;27.30;37.11
74334;BME280;62753;40.394;-80.022;2023-07-30T02:23:29;97328.39;;;27.87;36.90
74334;BME280;62753;40.394;-80.022;2023-07-30T02:25:55;97324.34;;;27.61;37.60
74334;BME280;62753;40.394;-80.022;2023-07-30T02:28:19;97326.96;;;27.65;37.03
74334;BME280;62753;40.394;-80.022;2023-07-30T02:30:45;97330.40;;;27.52;37.33
74334;BME280;62753;40.394;-80.022;2023-07-30T02:33:10;97341.05;;;26.98;38.38
74334;BME280;62753;40.394;-80.022;2023-07-30T02:35:36;97344.31;;;26.64;37.85
74334;BME280;62753;40.394;-80.022;2023-07-30T02:38:01;97345.08;;;26.93;38.27
74334;BME280;62753;40.394;-80.022;2023-07-30T02:40:25;97342.65;;;27.94;36.37
74334;BME280;62753;40.394;-80.022;2023-07-30T02:42:50;97346.28;;;27.63;36.77
74334;BME280;62753;40.394;-80.022;2023-07-30T02:45:16;97352.06;;;27.12;38.74
74334;BME280;62753;40.394;-80.022;2023-07-30T02:47:41;97358.31;;;26.87;38.32
74334;BME280;62753;40.394;-80.022;2023-07-30T02:50:08;97359.28;;;27.32;36.87
74334;BME280;62753;40.394;-80.022;2023-07-30T02:52:32;97361.77;;;26.91;37.58
74334;BME280;62753;40.394;-80.022;2023-07-30T02:54:56;97363.72;;;26.81;37.95
74334;BME280;62753;40.394;-80.022;2023-07-30T02:57:22;97358.44;;;27.28;38.16
74334;BME280;62753;40.394;-80.022;2023-07-30T02:59:47;97347.77;;;26.56;38.35
74334;BME280;62753;40.394;-80.022;2023-07-30T03:02:12;97343.38;;;26.34;39.12
74334;BME280;62753;40.394;-80.022;2023-07-30T03:04:37;97348.21;;;26.01;39.64
74334;BME280;62753;40.394;-80.022;2023-07-30T03:07:02;97350.57;;;27.70;37.12
74334;BME280;62753;40.394;-80.022;2023-07-30T03:09:28;97354.11;;;27.06;37.75
74334;BME280;62753;40.394;-80.022;2023-07-30T03:11:52;97355.75;;;26.64;38.19
74334;BME280;62753;40.394;-80.022;2023-07-30T03:14:18;97355.50;;;26.92;37.73
74334;BME280;62753;40.394;-80.022;2023-07-30T03:16:42;97348.51;;;27.23;37.09
74334;BME280;62753;40.394;-80.022;2023-07-30T03:19:08;97353.55;;;26.74;38.29
74334;BME280;62753;40.394;-80.022;2023-07-30T03:21:33;97354.97;;;26.53;38.03
74334;BME280;62753;40.394;-80.022;2023-07-30T03:23:58;97353.03;;;27.54;36.83
74334;BME280;62753;40.394;-80.022;2023-07-30T03:26:23;97355.43;;;26.97;38.54
74334;BME280;62753;40.394;-80.022;2023-07-30T03:28:49;97360.32;;;26.89;38.18
74334;BME280;62753;40.394;-80.022;2023-07-30T03:31:14;97365.89;;;27.74;36.61
74334;BME280;62753;40.394;-80.022;2023-07-30T03:33:41;97373.15;;;27.21;37.12
74334;BME280;62753;40.394;-80.022;2023-07-30T03:36:04;97369.85;;;27.24;37.48
74334;BME280;62753;40.394;-80.022;2023-07-30T03:38:29;97371.28;;;27.09;37.16
74334;BME280;62753;40.394;-80.022;2023-07-30T03:40:54;97375.77;;;26.83;38.11
74334;BME280;62753;40.394;-80.022;2023-07-30T03:43:20;97375.85;;;26.11;38.57
74334;BME280;62753;40.394;-80.022;2023-07-30T03:45:45;97377.96;;;26.49;38.66
74334;BME280;62753;40.394;-80.022;2023-07-30T03:48:11;97381.99;;;26.33;38.55
74334;BME280;62753;40.394;-80.022;2023-07-30T03:50:36;97380.27;;;27.60;36.71
74334;BME280;62753;40.394;-80.022;2023-07-30T03:53:01;97385.28;;;27.56;36.50
74334;BME280;62753;40.394;-80.022;2023-07-30T03:55:27;97397.31;;;27.08;37.07
74334;BME280;62753;40.394;-80.022;2023-07-30T03:57:52;97397.28;;;27.32;36.71
74334;BME280;62753;40.394;-80.022;2023-07-30T04:00:17;97402.70;;;28.81;34.40
74334;BME280;62753;40.394;-80.022;2023-07-30T04:02:42;97414.76;;;29.27;33.63
74334;BME280;62753;40.394;-80.022;2023-07-30T04:05:07;97421.23;;;29.00;33.37
74334;BME280;62753;40.394;-80.022;2023-07-30T04:07:32;97423.38;;;29.21;33.11
74334;BME280;62753;40.394;-80.022;2023-07-30T04:09:57;97418.76;;;28.60;33.94
74334;BME280;62753;40.394;-80.022;2023-07-30T04:12:23;97421.41;;;29.20;33.17
74334;BME280;62753;40.394;-80.022;2023-07-30T04:14:47;97421.69;;;29.59;32.31
74334;BME280;62753;40.394;-80.022;2023-07-30T04:17:12;97426.04;;;28.66;33.70
74334;BME280;62753;40.394;-80.022;2023-07-30T04:19:39;97430.20;;;28.04;34.75
74334;BME280;62753;40.394;-80.022;2023-07-30T04:22:03;97435.55;;;29.40;33.17
74334;BME280;62753;40.394;-80.022;2023-07-30T04:24:29;97432.90;;;29.07;33.33
74334;BME280;62753;40.394;-80.022;2023-07-30T04:26:54;97429.46;;;29.29;33.42
74334;BME280;62753;40.394;-80.022;2023-07-30T04:29:19;97414.88;;;29.02;33.71
74334;BME280;62753;40.394;-80.022;2023-07-30T04:31:44;97403.69;;;28.68;34.02
74334;BME280;62753;40.394;-80.022;2023-07-30T04:34:09;97406.99;;;29.81;32.63
74334;BME280;62753;40.394;-80.022;2023-07-30T04:36:34;97406.20;;;29.99;32.82
74334;BME280;62753;40.394;-80.022;2023-07-30T04:39:00;97412.68;;;29.65;33.32
74334;BME280;62753;40.394;-80.022;2023-07-30T04:41:25;97414.22;;;28.28;34.88
74334;BME280;62753;40.394;-80.022;2023-07-30T04:43:50;97413.05;;;28.74;34.00
74334;BME280;62753;40.394;-80.022;2023-07-30T04:46:15;97416.35;;;28.96;33.24
74334;BME280;62753;40.394;-80.022;2023-07-30T04:48:41;97411.82;;;29.56;32.94
74334;BME280;62753;40.394;-80.022;2023-07-30T04:51:05;97407.90;;;29.57;32.50
74334;BME280;62753;40.394;-80.022;2023-07-30T04:53:31;97402.53;;;29.70;32.76
74334;BME280;62753;40.394;-80.022;2023-07-30T04:55:56;97401.08;;;29.40;33.24
74334;BME280;62753;40.394;-80.022;2023-07-30T04:58:22;97396.70;;;29.93;32.31
74334;BME280;62753;40.394;-80.022;2023-07-30T05:00:46;97398.46;;;29.05;33.57
74334;BME280;62753;40.394;-80.022;2023-07-30T05:03:12;97394.63;;;28.65;33.63
74334;BME280;62753;40.394;-80.022;2023-07-30T05:05:37;97389.65;;;28.60;34.18
74334;BME280;62753;40.394;-80.022;2023-07-30T05:08:02;97389.73;;;28.35;34.74
74334;BME280;62753;40.394;-80.022;2023-07-30T05:10:27;97389.03;;;29.01;33.67
74334;BME280;62753;40.394;-80.022;2023-07-30T05:12:52;97385.17;;;28.70;34.07
74334;BME280;62753;40.394;-80.022;2023-07-30T05:15:17;97379.04;;;28.47;34.93
74334;BME280;62753;40.394;-80.022;2023-07-30T05:17:43;97377.95;;;28.43;34.58
74334;BME280;62753;40.394;-80.022;2023-07-30T05:20:10;97378.46;;;28.61;34.52
74334;BME280;62753;40.394;-80.022;2023-07-30T05:22:33;97378.97;;;28.20;35.43
74334;BME280;62753;40.394;-80.022;2023-07-30T05:24:58;97376.83;;;28.90;34.32
74334;BME280;62753;40.394;-80.022;2023-07-30T05:27:24;97372.22;;;28.39;34.90
74334;BME280;62753;40.394;-80.022;2023-07-30T05:29:49;97373.20;;;28.45;34.79
74334;BME280;62753;40.394;-80.022;2023-07-30T05:32:14;97370.54;;;28.38;34.90
74334;BME280;62753;40.394;-80.022;2023-07-30T05:34:40;97365.85;;;28.42;35.17
74334;BME280;62753;40.394;-80.022;2023-07-30T05:37:06;97372.00;;;28.18;35.48
74334;BME280;62753;40.394;-80.022;2023-07-30T05:39:31;97371.35;;;28.50;34.86
74334;BME280;62753;40.394;-80.022;2023-07-30T05:41:56;97366.93;;;27.96;36.07
74334;BME280;62753;40.394;-80.022;2023-07-30T05:44:22;97365.24;;;27.93;35.80
74334;BME280;62753;40.394;-80.022;2023-07-30T05:46:48;97360.62;;;27.10;37.36
74334;BME280;62753;40.394;-80.022;2023-07-30T05:49:13;97358.08;;;28.00;36.22
74334;BME280;62753;40.394;-80.022;2023-07-30T05:51:38;97359.45;;;27.80;36.37
74334;BME280;62753;40.394;-80.022;2023-07-30T05:54:03;97359.32;;;27.99;36.60
74334;BME280;62753;40.394;-80.022;2023-07-30T05:56:29;97362.77;;;27.54;37.06
74334;BME280;62753;40.394;-80.022;2023-07-30T05:58:54;97359.78;;;27.42;37.07
74334;BME280;62753;40.394;-80.022;2023-07-30T06:01:20;97358.14;;;27.41;37.30
74334;BME280;62753;40.394;-80.022;2023-07-30T06:03:45;97360.58;;;27.85;36.94
74334;BME280;62753;40.394;-80.022;2023-07-30T06:06:10;97364.29;;;27.63;37.50
74334;BME280;62753;40.394;-80.022;2023-07-30T06:08:35;97363.00;;;27.40;37.96
74334;BME280;62753;40.394;-80.022;2023-07-30T06:11:01;97354.76;;;27.39;37.52
74334;BME280;62753;40.394;-80.022;2023-07-30T06:13:25;97351.27;;;28.64;35.57
74334;BME280;62753;40.394;-80.022;2023-07-30T06:15:50;97352.01;;;28.86;35.32
74334;BME280;62753;40.394;-80.022;2023-07-30T06:18:15;97350.19;;;28.03;36.05
74334;BME280;62753;40.394;-80.022;2023-07-30T06:20:40;97347.46;;;27.92;36.01
74334;BME280;62753;40.394;-80.022;2023-07-30T06:23:06;97340.70;;;28.12;35.65
74334;BME280;62753;40.394;-80.022;2023-07-30T06:25:31;97345.06;;;28.91;34.59
74334;BME280;62753;40.394;-80.022;2023-07-30T06:27:56;97345.18;;;28.00;36.45
74334;BME280;62753;40.394;-80.022;2023-07-30T06:30:22;97343.32;;;27.73;36.37
74334;BME280;62753;40.394;-80.022;2023-07-30T06:32:47;97336.42;;;28.52;35.32
74334;BME280;62753;40.394;-80.022;2023-07-30T06:35:12;97338.33;;;28.74;35.12
74334;BME280;62753;40.394;-80.022;2023-07-30T06:37:37;97339.95;;;28.32;35.64
74334;BME280;62753;40.394;-80.022;2023-07-30T06:40:03;97335.85;;;27.66;36.43
74334;BME280;62753;40.394;-80.022;2023-07-30T06:42:27;97337.89;;;28.33;35.87
74334;BME280;62753;40.394;-80.022;2023-07-30T06:44:53;97334.55;;;27.42;36.93
74334;BME280;62753;40.394;-80.022;2023-07-30T06:47:18;97327.79;;;28.09;36.14
74334;BME280;62753;40.394;-80.022;2023-07-30T06:49:43;97325.27;;;27.61;36.88
74334;BME280;62753;40.394;-80.022;2023-07-30T06:52:08;97326.31;;;26.90;37.20
74334;BME280;62753;40.394;-80.022;2023-07-30T06:54:33;97326.83;;;27.67;36.25
74334;BME280;62753;40.394;-80.022;2023-07-30T06:56:58;97330.58;;;28.79;35.09
74334;BME280;62753;40.394;-80.022;2023-07-30T06:59:24;97335.45;;;27.72;36.40
74334;BME280;62753;40.394;-80.022;2023-07-30T07:01:49;97333.57;;;28.06;35.73
74334;BME280;62753;40.394;-80.022;2023-07-30T07:04:14;97332.85;;;27.51;36.41
74334;BME280;62753;40.394;-80.022;2023-07-30T07:06:40;97333.58;;;28.20;35.96
74334;BME280;62753;40.394;-80.022;2023-07-30T07:09:05;97327.94;;;27.49;37.13
74334;BME280;62753;40.394;-80.022;2023-07-30T07:11:30;97326.55;;;27.31;36.76
74334;BME280;62753;40.394;-80.022;2023-07-30T07:13:55;97325.50;;;27.87;36.31
74334;BME280;62753;40.394;-80.022;2023-07-30T07:16:20;97327.20;;;27.72;36.21
74334;BME280;62753;40.394;-80.022;2023-07-30T07:18:46;97327.72;;;28.17;35.52
74334;BME280;62753;40.394;-80.022;2023-07-30T07:21:11;97328.13;;;28.49;34.54
74334;BME280;62753;40.394;-80.022;2023-07-30T07:23:36;97322.22;;;28.17;35.75
74334;BME280;62753;40.394;-80.022;2023-07-30T07:26:01;97327.37;;;28.88;35.13
74334;BME280;62753;40.394;-80.022;2023-07-30T07:28:26;97327.32;;;27.92;35.76
74334;BME280;62753;40.394;-80.022;2023-07-30T07:30:51;97322.25;;;28.57;35.23
74334;BME280;62753;40.394;-80.022;2023-07-30T07:33:17;97319.64;;;27.87;35.77
74334;BME280;62753;40.394;-80.022;2023-07-30T07:35:41;97313.17;;;27.95;35.87
74334;BME280;62753;40.394;-80.022;2023-07-30T07:38:07;97305.85;;;27.81;36.11
74334;BME280;62753;40.394;-80.022;2023-07-30T07:40:36;97308.81;;;28.30;35.59
74334;BME280;62753;40.394;-80.022;2023-07-30T07:42:57;97304.67;;;28.34;35.47
74334;BME280;62753;40.394;-80.022;2023-07-30T07:45:22;97300.53;;;27.62;36.31
74334;BME280;62753;40.394;-80.022;2023-07-30T07:47:47;97302.72;;;27.88;35.93
74334;BME280;62753;40.394;-80.022;2023-07-30T07:50:13;97303.64;;;27.58;36.66
74334;BME280;62753;40.394;-80.022;2023-07-30T07:52:38;97310.08;;;27.86;36.60
74334;BME280;62753;40.394;-80.022;2023-07-30T07:55:04;97309.48;;;27.34;36.89
74334;BME280;62753;40.394;-80.022;2023-07-30T07:57:29;97312.27;;;27.45;36.57
74334;BME280;62753;40.394;-80.022;2023-07-30T07:59:53;97311.71;;;27.71;36.56
74334;BME280;62753;40.394;-80.022;2023-07-30T08:02:19;97311.63;;;26.40;38.53
74334;BME280;62753;40.394;-80.022;2023-07-30T08:04:44;97311.30;;;26.70;37.90
74334;BME280;62753;40.394;-80.022;2023-07-30T08:07:10;97312.96;;;27.94;36.61
74334;BME280;62753;40.394;-80.022;2023-07-30T08:09:35;97313.36;;;27.91;36.11
74334;BME280;62753;40.394;-80.022;2023-07-30T08:12:00;97308.75;;;27.21;38.07
74334;BME280;62753;40.394;-80.022;2023-07-30T08:14:25;97309.57;;;27.29;37.02
74334;BME280;62753;40.394;-80.022;2023-07-30T08:16:50;97317.87;;;26.82;37.29
74334;BME280;62753;40.394;-80.022;2023-07-30T08:19:15;97315.12;;;26.99;37.30
74334;BME280;62753;40.394;-80.022;2023-07-30T08:21:41;97311.10;;;26.22;39.10
74334;BME280;62753;40.394;-80.022;2023-07-30T08:24:06;97311.75;;;26.46;38.21
74334;BME280;62753;40.394;-80.022;2023-07-30T08:26:32;97315.29;;;27.29;37.21
74334;BME280;62753;40.394;-80.022;2023-07-30T08:28:56;97321.46;;;27.23;37.50
74334;BME280;62753;40.394;-80.022;2023-07-30T08:31:22;97319.27;;;27.45;36.96
74334;BME280;62753;40.394;-80.022;2023-07-30T08:33:47;97323.25;;;27.05;37.85
74334;BME280;62753;40.394;-80.022;2023-07-30T08:36:12;97327.55;;;26.86;38.13
74334;BME280;62753;40.394;-80.022;2023-07-30T08:38:37;97328.78;;;27.59;37.12
74334;BME280;62753;40.394;-80.022;2023-07-30T08:41:02;97328.91;;;27.23;37.20
74334;BME280;62753;40.394;-80.022;2023-07-30T08:43:27;97328.64;;;27.59;36.95
74334;BME280;62753;40.394;-80.022;2023-07-30T08:45:52;97329.92;;;26.49;38.50
74334;BME280;62753;40.394;-80.022;2023-07-30T08:48:18;97329.76;;;26.83;37.83
74334;BME280;62753;40.394;-80.022;2023-07-30T08:50:44;97335.68;;;27.07;37.37
74334;BME280;62753;40.394;-80.022;2023-07-30T08:53:09;97338.30;;;27.64;36.76
74334;BME280;62753;40.394;-80.022;2023-07-30T08:55:35;97344.91;;;27.10;37.52
74334;BME280;62753;40.394;-80.022;2023-07-30T08:58:01;97343.06;;;27.55;36.92
74334;BME280;62753;40.394;-80.022;2023-07-30T09:00:25;97345.45;;;27.87;36.74
74334;BME280;62753;40.394;-80.022;2023-07-30T09:02:53;97345.18;;;27.66;36.58
74334;BME280;62753;40.394;-80.022;2023-07-30T09:05:15;97346.77;;;27.87;36.62
74334;BME280;62753;40.394;-80.022;2023-07-30T09:07:41;97348.01;;;26.45;38.61
74334;BME280;62753;40.394;-80.022;2023-07-30T09:10:07;97348.93;;;26.56;38.25
74334;BME280;62753;40.394;-80.022;2023-07-30T09:12:33;97350.37;;;26.59;38.40
74334;BME280;62753;40.394;-80.022;2023-07-30T09:14:58;97352.11;;;26.76;38.18
74334;BME280;62753;40.394;-80.022;2023-07-30T09:17:23;97347.32;;;26.80;37.65
74334;BME280;62753;40.394;-80.022;2023-07-30T09:19:48;97349.54;;;26.99;38.00
74334;BME280;62753;40.394;-80.022;2023-07-30T09:22:21;97348.18;;;27.14;37.68
74334;BME280;62753;40.394;-80.022;2023-07-30T09:24:42;97350.17;;;25.94;38.25
74334;BME280;62753;40.394;-80.022;2023-07-30T09:27:05;97347.55;;;25.41;40.25
74334;BME280;62753;40.394;-80.022;2023-07-30T09:29:29;97346.31;;;25.93;39.29
74334;BME280;62753;40.394;-80.022;2023-07-30T09:31:55;97348.08;;;25.71;39.44
74334;BME280;62753;40.394;-80.022;2023-07-30T09:34:22;97355.70;;;25.92;39.87
74334;BME280;62753;40.394;-80.022;2023-07-30T09:36:46;97353.63;;;26.10;39.08
74334;BME280;62753;40.394;-80.022;2023-07-30T09:39:15;97356.10;;;26.47;38.61
74334;BME280;62753;40.394;-80.022;2023-07-30T09:41:36;97361.22;;;26.71;38.24
74334;BME280;62753;40.394;-80.022;2023-07-30T09:44:01;97358.22;;;26.73;37.85
74334;BME280;62753;40.394;-80.022;2023-07-30T09:46:29;97357.60;;;26.38;38.50
74334;BME280;62753;40.394;-80.022;2023-07-30T09:48:51;97359.08;;;26.14;38.51
74334;BME280;62753;40.394;-80.022;2023-07-30T09:51:16;97360.36;;;25.47;40.01
74334;BME280;62753;40.394;-80.022;2023-07-30T09:53:42;97362.71;;;25.54;39.62
74334;BME280;62753;40.394;-80.022;2023-07-30T09:56:06;97367.79;;;26.07;39.10
74334;BME280;62753;40.394;-80.022;2023-07-30T09:58:32;97375.74;;;26.32;38.36
74334;BME280;62753;40.394;-80.022;2023-07-30T10:00:58;97379.72;;;26.28;38.47
74334;BME280;62753;40.394;-80.022;2023-07-30T10:03:22;97382.91;;;26.28;38.19
74334;BME280;62753;40.394;-80.022;2023-07-30T10:05:48;97384.28;;;26.38;38.70
74334;BME280;62753;40.394;-80.022;2023-07-30T10:08:19;97387.50;;;25.25;40.81
74334;BME280;62753;40.394;-80.022;2023-07-30T10:10:39;97389.79;;;25.67;39.90
74334;BME280;62753;40.394;-80.022;2023-07-30T10:13:07;97388.63;;;25.86;39.18
74334;BME280;62753;40.394;-80.022;2023-07-30T10:15:29;97388.72;;;26.09;38.73
74334;BME280;62753;40.394;-80.022;2023-07-30T10:17:56;97391.45;;;26.11;38.98
74334;BME280;62753;40.394;-80.022;2023-07-30T10:20:22;97390.21;;;26.29;38.19
74334;BME280;62753;40.394;-80.022;2023-07-30T10:22:46;97385.77;;;25.70;39.36
74334;BME280;62753;40.394;-80.022;2023-07-30T10:25:12;97393.54;;;25.64;39.15
74334;BME280;62753;40.394;-80.022;2023-07-30T10:27:37;97393.41;;;26.25;38.57
74334;BME280;62753;40.394;-80.022;2023-07-30T10:30:11;97394.54;;;27.44;37.02
74334;BME280;62753;40.394;-80.022;2023-07-30T10:34:51;97397.97;;;26.88;37.31
74334;BME280;62753;40.394;-80.022;2023-07-30T10:37:18;97394.13;;;27.57;36.20
74334;BME280;62753;40.394;-80.022;2023-07-30T10:39:43;97395.62;;;27.63;36.15
74334;BME280;62753;40.394;-80.022;2023-07-30T10:42:09;97404.25;;;27.13;37.10
74334;BME280;62753;40.394;-80.022;2023-07-30T10:44:35;97405.59;;;26.59;37.38
74334;BME280;62753;40.394;-80.022;2023-07-30T10:47:01;97406.27;;;26.44;38.10
74334;BME280;62753;40.394;-80.022;2023-07-30T10:49:25;97410.09;;;26.85;37.49
74334;BME280;62753;40.394;-80.022;2023-07-30T10:51:52;97412.79;;;26.79;37.87
74334;BME280;62753;40.394;-80.022;2023-07-30T10:54:16;97416.20;;;26.74;38.70
74334;BME280;62753;40.394;-80.022;2023-07-30T10:56:43;97426.27;;;26.32;38.91
74334;BME280;62753;40.394;-80.022;2023-07-30T10:59:08;97430.80;;;26.33;39.15
74334;BME280;62753;40.394;-80.022;2023-07-30T11:01:37;97436.71;;;26.16;39.60
74334;BME280;62753;40.394;-80.022;2023-07-30T11:03:57;97435.41;;;25.81;40.43
74334;BME280;62753;40.394;-80.022;2023-07-30T11:06:24;97441.22;;;25.72;40.86
74334;BME280;62753;40.394;-80.022;2023-07-30T11:08:48;97445.76;;;26.15;39.54
74334;BME280;62753;40.394;-80.022;2023-07-30T11:11:15;97449.05;;;26.53;39.39
74334;BME280;62753;40.394;-80.022;2023-07-30T11:13:41;97448.13;;;26.86;38.70
74334;BME280;62753;40.394;-80.022;2023-07-30T11:16:06;97448.07;;;27.98;37.22
74334;BME280;62753;40.394;-80.022;2023-07-30T11:18:32;97449.97;;;27.03;37.87
74334;BME280;62753;40.394;-80.022;2023-07-30T11:21:04;97454.83;;;27.34;38.35
74334;BME280;62753;40.394;-80.022;2023-07-30T11:23:22;97460.78;;;27.35;38.55
74334;BME280;62753;40.394;-80.022;2023-07-30T11:25:48;97459.32;;;26.49;39.96
74334;BME280;62753;40.394;-80.022;2023-07-30T11:28:13;97460.21;;;27.41;39.04
74334;BME280;62753;40.394;-80.022;2023-07-30T11:30:39;97462.98;;;27.55;38.65
74334;BME280;62753;40.394;-80.022;2023-07-30T11:33:04;97462.82;;;27.84;37.92
74334;BME280;62753;40.394;-80.022;2023-07-30T11:35:29;97462.39;;;28.38;37.42
74334;BME280;62753;40.394;-80.022;2023-07-30T11:37:54;97463.10;;;27.87;37.55
74334;BME280;62753;40.394;-80.022;2023-07-30T11:40:22;97470.96;;;26.45;39.41
74334;BME280;62753;40.394;-80.022;2023-07-30T11:42:45;97474.06;;;27.52;38.44
74334;BME280;62753;40.394;-80.022;2023-07-30T11:45:20;97477.37;;;26.77;39.92
74334;BME280;62753;40.394;-80.022;2023-07-30T11:47:36;97482.75;;;27.58;38.99
74334;BME280;62753;40.394;-80.022;2023-07-30T11:50:02;97480.97;;;27.24;39.92
74334;BME280;62753;40.394;-80.022;2023-07-30T11:52:27;97482.92;;;27.66;38.94
74334;BME280;62753;40.394;-80.022;2023-07-30T11:55:00;97480.60;;;28.27;37.85
74334;BME280;62753;40.394;-80.022;2023-07-30T11:57:17;97483.78;;;27.99;38.25
74334;BME280;62753;40.394;-80.022;2023-07-30T11:59:44;97486.79;;;28.01;37.94
74334;BME280;62753;40.394;-80.022;2023-07-30T12:02:14;97485.86;;;27.66;38.64
74334;BME280;62753;40.394;-80.022;2023-07-30T12:04:43;97487.98;;;26.86;40.32
74334;BME280;62753;40.394;-80.022;2023-07-30T12:07:03;97487.04;;;27.70;38.12
74334;BME280;62753;40.394;-80.022;2023-07-30T12:09:25;97483.13;;;28.97;36.75
74334;BME280;62753;40.394;-80.022;2023-07-30T12:11:51;97485.79;;;28.29;37.89
74334;BME280;62753;40.394;-80.022;2023-07-30T12:14:16;97487.10;;;27.46;39.95
74334;BME280;62753;40.394;-80.022;2023-07-30T12:16:41;97485.04;;;27.79;39.22
74334;BME280;62753;40.394;-80.022;2023-07-30T12:19:06;97483.62;;;28.74;37.55
74334;BME280;62753;40.394;-80.022;2023-07-30T12:21:32;97486.71;;;27.46;39.26
74334;BME280;62753;40.394;-80.022;2023-07-30T12:23:58;97486.31;;;27.21;40.23
74334;BME280;62753;40.394;-80.022;2023-07-30T12:26:23;97482.92;;;26.75;40.27
74334;BME280;62753;40.394;-80.022;2023-07-30T12:28:49;97481.84;;;28.03;38.92
74334;BME280;62753;40.394;-80.022;2023-07-30T12:31:14;97481.35;;;27.44;39.10